Latest Weather Observations for North Island

IDW60801

Issued at 10:23 am WST Tuesday 22 September 2020 (issued every 10 minutes, with the page automatically refreshed every 10 minutes)

About weather observations | Map of weather stations | Latest weather observations for WA | Other Formats
Station Details ID: 008290 Name: NORTH ISLAND Lat: -28.30 Lon: 113.59 Height: 2.2 m
Data from the previous 72 hours. | See also: Recent months at North Island
Date/Time
WST
Temp
°C
App
Temp
°C
Dew
Point
°C
Rel
Hum
%
Delta-T
°C
Wind Press
QNH
hPa
Press
MSL
hPa
Rain since
9am
mm
Dir  Spd
km/h
Gust
km/h
Spd
kts
Gust
kts
22/10:00am 19.1 13.2 10.6 58 4.6 ESE 32 39 17 21 1023.8 1023.8 0.0
22/09:30am 19.1 13.7 10.9 59 4.5 ESE 30 37 16 20 1023.9 1023.9 0.0
22/09:00am 18.9 14.1 11.7 63 3.9 ESE 28 35 15 19 1023.9 1023.9 0.0
22/08:30am 17.7 12.7 11.0 65 3.6 ESE 28 35 15 19 1023.9 1023.9 0.0
22/08:00am 16.8 11.9 11.3 70 3.0 E 28 37 15 20 1023.7 1023.7 0.0
22/07:30am 16.7 12.1 11.2 70 3.0 ESE 26 35 14 19 1023.4 1023.4 0.0
22/07:00am 16.5 12.0 11.4 72 2.7 E 26 32 14 17 1023.1 1023.1 0.0
22/06:30am 16.0 11.8 11.0 72 2.7 ESE 24 30 13 16 1022.9 1022.9 0.0
22/06:00am 16.5 12.4 11.4 72 2.7 E 24 32 13 17 1022.7 1022.7 0.0
22/05:30am 16.7 12.0 10.5 67 3.3 SE 26 35 14 19 1022.4 1022.4 0.0
22/05:00am 16.2 11.6 9.8 66 3.3 SE 24 30 13 16 1022.1 1022.1 0.0
22/04:30am 16.1 11.4 9.3 64 3.5 SE 24 32 13 17 1022.1 1022.1 0.0
22/04:00am 16.1 11.1 9.5 65 3.4 SE 26 32 14 17 1022.1 1022.1 0.0
22/03:30am 16.2 11.5 9.4 64 3.5 SE 24 32 13 17 1022.2 1022.2 0.0
22/03:00am 16.3 11.7 9.5 64 3.5 SE 24 33 13 18 1022.3 1022.3 0.0
22/02:30am 16.1 11.4 9.1 63 3.6 SE 24 32 13 17 1022.3 1022.3 0.0
22/02:00am 16.2 11.4 8.7 61 3.8 SE 24 32 13 17 1022.4 1022.4 0.0
22/01:30am 16.3 11.1 9.0 62 3.8 SE 26 32 14 17 1022.4 1022.4 0.0
22/01:00am 16.3 11.1 9.0 62 3.7 SE 26 32 14 17 1022.5 1022.5 0.0
22/12:30am 16.3 11.1 9.0 62 3.8 SE 26 33 14 18 1022.6 1022.6 0.0
22/12:00am 16.2 10.6 8.7 61 3.8 SE 28 33 15 18 1022.9 1022.9 0.0
 
Date/Time
WST
Temp
°C
App
Temp
°C
Dew
Point
°C
Rel
Hum
%
Delta-T
°C
Wind Press
QNH
hPa
Press
MSL
hPa
Rain since
9am
mm
Dir  Spd
km/h
Gust
km/h
Spd
kts
Gust
kts
21/11:30pm 16.2 10.8 8.2 59 4.0 SSE 26 32 14 17 1022.8 1022.8 0.0
21/11:00pm 16.2 10.3 7.4 56 4.4 SSE 28 33 15 18 1023.0 1023.0 0.0
21/10:30pm 16.5 10.7 8.0 57 4.3 SSE 28 35 15 19 1023.1 1023.1 0.0
21/10:00pm 16.6 10.8 8.1 57 4.3 SSE 28 35 15 19 1023.3 1023.3 0.0
21/09:30pm 17.0 11.4 8.7 58 4.3 SE 28 35 15 19 1023.4 1023.4 0.0
21/09:00pm 16.8 11.8 8.2 57 4.3 SSE 24 33 13 18 1023.7 1023.7 0.0
21/08:30pm 16.9 10.8 6.4 50 5.1 SE 28 35 15 19 1023.6 1023.6 0.0
21/08:00pm 17.0 11.8 7.1 52 4.9 SSE 24 33 13 18 1023.3 1023.3 0.0
21/07:30pm 17.1 12.7 7.5 53 4.8 SE 20 32 11 17 1022.9 1022.9 0.0
21/07:00pm 16.8 11.5 6.6 51 5.0 SSE 24 32 13 17 1022.8 1022.8 0.0
21/06:30pm 17.2 12.0 7.3 52 5.0 SSE 24 35 13 19 1022.8 1022.8 0.0
21/06:00pm 17.6 12.5 7.6 52 5.0 SSE 24 32 13 17 1022.5 1022.5 0.0
21/05:30pm 18.0 12.5 7.7 51 5.2 SSE 26 32 14 17 1022.5 1022.5 0.0
21/05:00pm 17.9 12.1 6.1 46 5.8 S 26 35 14 19 1022.4 1022.4 0.0
21/04:30pm 19.3 13.9 6.4 43 6.4 SSE 24 32 13 17 1022.3 1022.3 0.0
21/04:00pm 19.6 14.3 6.7 43 6.5 SSE 24 33 13 18 1022.2 1022.2 0.0
21/03:30pm 19.1 13.1 7.2 46 6.0 SSE 28 33 15 18 1022.2 1022.2 0.0
21/03:00pm 19.5 14.5 8.2 48 5.8 SSE 24 32 13 17 1022.4 1022.4 0.0
21/02:30pm 18.7 14.1 8.1 50 5.4 SSE 22 28 12 15 1022.5 1022.5 0.0
21/02:00pm 20.3 15.4 7.0 42 6.7 S 22 32 12 17 1022.7 1022.7 0.0
21/01:30pm 19.4 14.0 6.2 42 6.6 S 24 32 13 17 1023.0 1023.0 0.0
21/01:00pm 20.2 14.7 5.8 39 7.1 S 24 30 13 16 1023.0 1023.0 0.0
21/12:30pm 19.9 14.3 7.0 43 6.5 S 26 32 14 17 1023.3 1023.3 0.0
21/12:00pm 19.7 14.9 7.4 45 6.2 S 22 32 12 17 1023.5 1023.5 0.0
21/11:30am 20.4 15.3 6.0 39 7.2 SSE 22 28 12 15 1023.6 1023.6 0.0
21/11:00am 19.6 14.7 4.1 36 7.4 SSE 19 22 10 12 1023.9 1023.9 0.0
21/10:30am 19.6 14.5 4.1 36 7.4 SSE 20 28 11 15 1023.9 1023.9 0.0
21/10:00am 20.0 14.7 6.7 42 6.7 SE 24 32 13 17 1024.0 1024.0 0.0
21/09:30am 18.9 13.7 7.4 47 5.8 SSE 24 32 13 17 1024.0 1024.0 0.0
21/09:00am 18.1 12.7 8.1 52 5.1 SSE 26 33 14 18 1024.0 1024.0 0.0
21/08:30am 17.5 11.4 8.4 55 4.7 SSE 30 41 16 22 1023.6 1023.6 0.0
21/08:00am 17.2 11.7 7.5 53 4.8 SSE 26 32 14 17 1023.4 1023.4 0.0
21/07:30am 17.1 12.1 6.6 50 5.2 SSE 22 28 12 15 1023.2 1023.2 0.0
21/07:00am 16.8 10.6 6.3 50 5.1 SSE 28 35 15 19 1022.7 1022.7 0.0
21/06:30am 16.6 11.4 7.3 54 4.6 SSE 24 32 13 17 1022.4 1022.4 0.0
21/06:00am 16.5 11.6 6.9 53 4.7 S 22 32 12 17 1022.4 1022.4 0.0
21/05:30am 16.7 11.6 6.2 50 5.1 S 22 32 12 17 1022.2 1022.2 0.0
21/05:00am 16.5 9.5 5.8 49 5.1 S 32 41 17 22 1022.1 1022.1 0.0
21/04:30am 16.6 10.3 7.5 55 4.6 S 30 35 16 19 1022.0 1022.0 0.0
21/04:00am 16.5 9.8 7.4 55 4.5 S 32 37 17 20 1021.8 1021.8 0.0
21/03:30am 17.0 12.1 8.4 57 4.4 S 24 33 13 18 1021.8 1021.8 0.0
21/03:00am 16.6 12.0 6.4 51 5.0 S 20 26 11 14 1021.8 1021.8 0.0
21/02:30am 16.4 10.7 5.1 47 5.4 S 24 32 13 17 1021.9 1021.9 0.0
21/02:00am 16.7 10.5 6.2 50 5.1 S 28 39 15 21 1021.9 1021.9 0.0
21/01:30am 16.5 11.0 5.8 49 5.2 SSE 24 33 13 18 1022.1 1022.1 0.0
21/01:00am 16.6 10.3 5.9 49 5.2 S 28 35 15 19 1022.2 1022.2 0.0
21/12:30am 16.8 10.6 6.0 49 5.2 S 28 37 15 20 1022.4 1022.4 0.0
21/12:00am 16.8 11.4 8.0 56 4.4 S 26 32 14 17 1022.5 1022.5 0.0
 
Date/Time
WST
Temp
°C
App
Temp
°C
Dew
Point
°C
Rel
Hum
%
Delta-T
°C
Wind Press
QNH
hPa
Press
MSL
hPa
Rain since
9am
mm
Dir  Spd
km/h
Gust
km/h
Spd
kts
Gust
kts
20/11:30pm 16.8 9.8 6.0 49 5.2 S 32 44 17 24 1022.4 1022.4 0.0
20/11:00pm 16.8 11.5 6.6 51 5.0 S 24 33 13 18 1022.6 1022.6 0.0
20/10:30pm 16.4 9.2 4.8 46 5.5 S 32 39 17 21 1022.7 1022.7 0.0
20/10:00pm 16.8 10.0 6.9 52 4.9 SSW 32 39 17 21 1023.0 1023.0 0.0
20/09:30pm 16.8 9.7 6.3 50 5.1 S 33 41 18 22 1022.9 1022.9 0.0
20/09:00pm 16.8 10.0 6.9 52 4.9 S 32 41 17 22 1022.8 1022.8 0.0
20/08:30pm 17.0 9.7 7.4 53 4.8 S 35 44 19 24 1022.7 1022.7 0.0
20/08:00pm 16.6 10.0 6.1 50 5.1 SSW 30 35 16 19 1022.5 1022.5 0.0
20/07:30pm 16.8 10.1 7.2 53 4.8 SSW 32 43 17 23 1022.3 1022.3 0.0
20/07:00pm 16.7 11.1 7.1 53 4.7 SSW 26 37 14 20 1022.0 1022.0 0.0
20/06:30pm 16.4 10.4 5.1 47 5.4 SSW 26 32 14 17 1021.8 1021.8 0.0
20/06:00pm 16.7 10.6 4.7 45 5.7 SSW 26 35 14 19 1021.8 1021.8 0.0
20/05:30pm 17.2 10.0 5.2 45 5.8 SSW 32 41 17 22 1021.6 1021.6 0.0
20/05:00pm 17.6 10.6 6.2 47 5.6 SSW 32 41 17 22 1021.5 1021.5 0.0
20/04:30pm 17.8 10.9 7.2 50 5.3 SSW 33 41 18 22 1021.5 1021.5 0.0
20/04:00pm 18.5 11.4 5.4 42 6.3 SSW 32 41 17 22 1021.4 1021.4 0.0
20/03:30pm 18.7 12.2 6.5 45 6.1 SSW 30 37 16 20 1021.3 1021.3 0.0
20/03:00pm 19.0 12.6 6.8 45 6.1 SSW 30 39 16 21 1021.2 1021.2 0.0
20/02:30pm 19.2 13.3 7.6 47 5.9 SSW 28 39 15 21 1021.3 1021.3 0.0
20/02:00pm 19.1 14.1 8.1 49 5.6 SW 24 32 13 17 1021.5 1021.5 0.0
20/01:30pm 18.1 12.2 9.2 56 4.6 SW 30 39 16 21 1021.7 1021.7 0.0
20/01:00pm 19.7 13.0 5.7 40 6.9 SSW 30 37 16 20 1021.8 1021.8 0.0
20/12:30pm 20.5 13.8 7.2 42 6.8 SW 32 41 17 22 1021.8 1021.8 0.0
20/12:00pm 19.9 14.5 7.9 46 6.2 SSW 26 33 14 18 1022.0 1022.0 0.0
20/11:30am 18.5 13.3 7.3 48 5.7 SSW 24 33 13 18 1022.2 1022.2 0.0
20/11:00am 18.8 12.4 5.3 41 6.5 SSW 28 35 15 19 1022.2 1022.2 0.0
20/10:30am 18.5 11.5 6.7 46 5.9 SSW 33 48 18 26 1022.1 1022.1 0.0
20/10:00am 17.9 11.4 8.2 53 4.9 SSW 32 41 17 22 1021.9 1021.9 0.0
20/09:30am 18.1 11.2 6.3 46 5.8 SSW 32 39 17 21 1021.7 1021.7 0.0
20/09:00am 17.3 11.0 7.6 53 4.9 SSW 30 39 16 21 1021.6 1021.6 0.0
20/08:30am 17.3 11.4 7.4 52 5.0 SSW 28 37 15 20 1021.3 1021.3 0.0
20/08:00am 16.7 10.6 6.8 52 4.9 SSW 28 37 15 20 1020.9 1020.9 0.0
20/07:30am 16.4 9.3 6.2 51 5.0 SSW 33 43 18 23 1020.4 1020.4 0.0
20/07:14am 16.3 9.6 5.6 49 5.1 SSW 30 48 16 26 1020.0 1020.0 0.0
20/07:00am 15.8 9.4 5.4 50 4.9 SSW 28 37 15 20 1019.8 1019.8 0.0
20/06:30am 15.4 8.7 5.6 52 4.7 SSW 30 41 16 22 1019.5 1019.5 0.0
20/06:00am 15.8 8.0 6.5 54 4.5 SSW 37 46 20 25 1019.0 1019.0 0.0
20/05:30am 15.7 7.9 5.0 49 5.1 SSW 35 44 19 24 1018.6 1018.6 0.0
20/05:00am 15.8 7.8 5.7 51 4.8 SSW 37 44 20 24 1018.4 1018.4 0.0
20/04:30am 15.5 8.9 6.2 54 4.5 SSW 30 41 16 22 1018.3 1018.3 0.0
20/04:00am 14.9 7.4 4.6 50 4.8 SSW 33 44 18 24 1018.4 1018.4 0.0
20/03:30am 15.3 7.6 5.2 51 4.8 SSW 35 46 19 25 1018.2 1018.2 0.0
20/03:00am 15.5 8.1 5.1 50 4.9 SSW 33 41 18 22 1018.2 1018.2 0.0
20/02:30am 15.4 7.5 6.2 54 4.4 SSW 37 48 20 26 1018.4 1018.4 0.0
20/02:00am 15.6 8.5 5.5 51 4.8 SW 32 41 17 22 1018.5 1018.5 0.0
20/01:30am 15.5 6.8 4.3 47 5.2 SSW 39 48 21 26 1018.5 1018.5 0.0
20/01:00am 16.1 9.0 6.5 53 4.7 SSW 33 43 18 23 1018.6 1018.6 0.0
20/12:30am 16.1 8.6 6.5 53 4.7 SSW 35 44 19 24 1018.8 1018.8 0.0
20/12:00am 16.0 8.7 5.6 50 5.0 SSW 33 43 18 23 1018.9 1018.9 0.0
 
Date/Time
WST
Temp
°C
App
Temp
°C
Dew
Point
°C
Rel
Hum
%
Delta-T
°C
Wind Press
QNH
hPa
Press
MSL
hPa
Rain since
9am
mm
Dir  Spd
km/h
Gust
km/h
Spd
kts
Gust
kts
19/11:30pm 16.0 7.5 5.3 49 5.1 SSW 39 50 21 27 1019.0 1019.0 0.0
19/11:00pm 16.4 8.3 6.8 53 4.7 SSW 39 52 21 28 1018.9 1018.9 0.0
19/10:30pm 16.4 8.6 8.1 58 4.2 SSW 39 48 21 26 1019.0 1019.0 0.0
19/10:00pm 16.6 7.4 5.3 47 5.4 SSW 43 54 23 29 1019.0 1019.0 0.0
19/09:30pm 16.7 9.2 8.1 57 4.4 SSW 37 46 20 25 1018.8 1018.8 0.0
19/09:00pm 16.8 8.7 6.9 52 4.9 SSW 39 52 21 28 1018.8 1018.8 0.0
19/08:30pm 16.9 8.7 8.1 56 4.5 SSW 41 52 22 28 1018.5 1018.5 0.0
19/08:00pm 17.1 9.9 7.5 53 4.8 SW 35 50 19 27 1018.1 1018.1 0.0
19/07:30pm 17.2 8.8 7.3 52 5.0 SSW 41 50 22 27 1017.7 1017.7 0.0
19/07:00pm 17.3 9.2 7.1 51 5.1 SW 39 48 21 26 1017.4 1017.4 0.0
19/06:30pm 17.4 10.2 7.7 53 4.9 SW 35 44 19 24 1017.1 1017.1 0.0
19/06:00pm 17.5 9.5 7.3 51 5.1 SW 39 50 21 27 1017.0 1017.0 0.0
19/05:30pm 18.1 9.9 6.6 47 5.7 SW 39 48 21 26 1016.8 1016.8 0.0
19/05:00pm 18.7 10.8 7.8 49 5.6 SW 39 48 21 26 1016.4 1016.4 0.0
19/04:36pm 18.2 11.8 9.5 57 4.6 SW 33 52 18 28 1016.3 1016.3 0.0
19/04:30pm 19.3 13.0 9.8 54 5.1 SW 33 43 18 23 1016.2 1016.2 0.0
19/04:00pm 19.5 12.4 9.4 52 5.3 SW 37 48 20 26 1016.0 1016.0 0.0
19/03:30pm 20.3 13.4 7.3 43 6.6 SW 33 46 18 25 1015.8 1015.8 0.0
19/03:00pm 19.4 12.6 7.8 47 5.9 SW 33 46 18 25 1015.7 1015.7 0.0
19/02:30pm 19.2 12.9 9.1 52 5.3 SW 32 43 17 23 1015.6 1015.6 0.0
19/02:00pm 19.8 13.5 7.2 44 6.4 SSW 30 43 16 23 1015.5 1015.5 0.0
19/01:30pm 20.1 13.8 7.5 44 6.5 SSW 30 39 16 21 1015.3 1015.3 0.0
19/01:00pm 19.7 12.7 8.4 48 5.9 SW 35 48 19 26 1015.3 1015.3 0.0
19/12:30pm 20.3 13.4 8.9 48 6.0 SW 35 48 19 26 1015.0 1015.0 0.0
19/12:00pm 20.0 11.9 10.1 53 5.3 SW 43 52 23 28 1014.9 1014.9 0.0
19/11:30am 20.9 14.8 10.4 51 5.7 SW 33 43 18 23 1014.9 1014.9 0.0
19/11:00am 20.2 15.0 11.7 58 4.7 SW 30 39 16 21 1014.9 1014.9 0.0
19/10:30am 20.8 14.8 12.2 58 4.8 SW 35 44 19 24 1014.6 1014.6 0.0

Other formats

Comma delimited format used in spreadsheet applications
http://www.bom.gov.au/fwo/IDW60801/IDW60801.94405.axf

JavaScript Object Notation format (JSON) in row-major order
http://www.bom.gov.au/fwo/IDW60801/IDW60801.94405.json

Data quality

Most of these data are generated automatically and are frequently updated. Quality checks on data are not normally performed. It is possible for incorrect values to appear. Refer to information at About Latest Weather Observations and please check the disclaimer before using these data.